createdAt,value
2023-11-08T00:01:40.505Z,20.15
2023-11-08T00:04:08.042Z,20.13
2023-11-08T00:06:35.204Z,20.10
2023-11-08T00:09:03.877Z,20.33
2023-11-08T00:11:31.928Z,20.00
2023-11-08T00:13:59.046Z,20.33
2023-11-08T00:16:27.693Z,20.33
2023-11-08T00:18:54.754Z,20.08
2023-11-08T00:21:21.875Z,20.83
2023-11-08T00:23:49.743Z,20.00
2023-11-08T00:26:17.084Z,19.90
2023-11-08T00:28:44.385Z,19.92
2023-11-08T00:31:11.476Z,19.13
2023-11-08T00:33:38.628Z,20.23
2023-11-08T00:36:07.288Z,20.42
2023-11-08T00:38:34.475Z,20.23
2023-11-08T00:41:01.544Z,20.50
2023-11-08T00:43:28.579Z,20.50
2023-11-08T00:45:55.643Z,20.20
2023-11-08T00:48:24.965Z,20.48
2023-11-08T00:50:53.977Z,20.92
2023-11-08T00:53:22.494Z,20.70
2023-11-08T00:55:49.478Z,21.25
2023-11-08T00:58:16.653Z,20.25
2023-11-08T01:00:43.734Z,21.05
2023-11-08T01:03:11.064Z,20.65
2023-11-08T01:05:38.209Z,20.80
2023-11-08T01:08:06.674Z,20.88
2023-11-08T01:10:35.950Z,21.30
2023-11-08T01:13:07.736Z,21.45
2023-11-08T01:15:34.834Z,20.80
2023-11-08T01:18:02.051Z,21.63
2023-11-08T01:20:29.165Z,21.45
2023-11-08T01:22:56.167Z,21.48
2023-11-08T01:25:24.648Z,21.25
2023-11-08T01:27:52.463Z,21.10
2023-11-08T01:30:19.504Z,21.45
2023-11-08T01:32:46.489Z,21.63
2023-11-08T01:35:13.534Z,21.70
2023-11-08T01:37:42.142Z,21.38
2023-11-08T01:40:09.873Z,21.65
2023-11-08T01:42:37.059Z,21.38
2023-11-08T01:45:06.042Z,21.52
2023-11-08T01:47:36.903Z,22.15
2023-11-08T01:50:08.268Z,22.60
2023-11-08T01:52:36.468Z,22.40
2023-11-08T01:55:05.220Z,22.83
2023-11-08T01:57:33.251Z,24.75
2023-11-08T02:00:01.122Z,22.73
2023-11-08T02:02:29.409Z,22.60
2023-11-08T02:04:56.787Z,24.23
2023-11-08T02:07:24.900Z,22.52
2023-11-08T02:09:52.010Z,22.30
2023-11-08T02:12:19.191Z,22.42
2023-11-08T02:15:07.048Z,22.67
2023-11-08T02:17:34.140Z,22.45
2023-11-08T02:20:04.905Z,21.80
2023-11-08T02:22:32.421Z,24.90
2023-11-08T02:25:00.247Z,23.02
2023-11-08T02:27:27.343Z,20.58
2023-11-08T02:29:54.352Z,21.02
2023-11-08T02:32:21.324Z,21.95
2023-11-08T02:34:50.166Z,21.50
2023-11-08T02:37:17.271Z,21.95
2023-11-08T02:39:44.345Z,24.00
2023-11-08T02:42:11.702Z,21.15
2023-11-08T02:44:39.642Z,20.85
2023-11-08T02:47:08.179Z,20.88
2023-11-08T02:49:35.357Z,21.00
2023-11-08T02:52:03.443Z,20.75
2023-11-08T02:54:30.692Z,20.83
2023-11-08T02:56:57.812Z,21.15
2023-11-08T02:59:24.792Z,22.35
2023-11-08T03:01:51.914Z,20.60
2023-11-08T03:04:20.243Z,20.30
2023-11-08T03:06:47.777Z,20.10
2023-11-08T03:09:16.033Z,20.10
2023-11-08T03:11:43.102Z,22.67
2023-11-08T03:14:10.388Z,20.88
2023-11-08T03:16:37.584Z,20.23
2023-11-08T03:19:04.941Z,19.95
2023-11-08T03:21:33.132Z,19.95
2023-11-08T03:24:02.214Z,21.52
2023-11-08T03:26:30.443Z,20.42
2023-11-08T03:28:57.459Z,20.27
2023-11-08T03:31:24.456Z,20.98
2023-11-08T03:33:51.699Z,20.52
2023-11-08T03:36:20.423Z,20.08
2023-11-08T03:38:47.518Z,19.85
2023-11-08T03:41:15.782Z,19.60
2023-11-08T03:43:42.827Z,20.08
2023-11-08T03:46:11.190Z,20.40
2023-11-08T03:48:38.858Z,19.75
2023-11-08T03:51:06.066Z,19.42
2023-11-08T03:53:33.114Z,19.73
2023-11-08T03:56:00.183Z,19.45
2023-11-08T03:58:27.203Z,20.13
2023-11-08T04:00:54.265Z,19.08
2023-11-08T04:03:21.609Z,18.98
2023-11-08T04:05:49.168Z,19.48
2023-11-08T04:08:17.417Z,18.92
2023-11-08T04:10:44.529Z,19.05
2023-11-08T04:13:12.690Z,18.75
2023-11-08T04:15:40.025Z,17.90
2023-11-08T04:18:07.320Z,18.70
2023-11-08T04:20:35.314Z,19.42
2023-11-08T04:23:03.442Z,19.00
2023-11-08T04:25:32.229Z,18.88
2023-11-08T04:28:00.518Z,19.40
2023-11-08T04:30:28.239Z,20.35
2023-11-08T04:32:55.446Z,20.35
2023-11-08T04:35:23.844Z,24.08
2023-11-08T04:37:50.886Z,22.05
2023-11-08T04:40:19.576Z,21.73
2023-11-08T04:42:46.739Z,24.38
2023-11-08T04:45:13.807Z,21.45
2023-11-08T04:47:41.118Z,21.98
2023-11-08T04:50:09.923Z,21.52
2023-11-08T04:52:37.059Z,24.55
2023-11-08T04:55:04.507Z,22.25
2023-11-08T04:57:33.468Z,21.88
2023-11-08T05:00:00.642Z,25.75
2023-11-08T05:02:28.140Z,22.65
2023-11-08T05:04:55.156Z,22.48
2023-11-08T05:07:22.390Z,23.10
2023-11-08T05:09:50.060Z,24.92
2023-11-08T05:12:19.063Z,23.70
2023-11-08T05:14:46.805Z,23.85
2023-11-08T05:17:16.801Z,22.77
2023-11-08T05:19:44.189Z,24.40
2023-11-08T05:22:12.727Z,23.55
2023-11-08T05:24:40.990Z,25.80
2023-11-08T05:27:08.068Z,25.98
2023-11-08T05:29:35.105Z,31.38
2023-11-08T05:32:03.545Z,27.08
2023-11-08T05:34:30.619Z,27.98
2023-11-08T05:36:57.810Z,30.40
2023-11-08T05:39:26.555Z,28.63
2023-11-08T05:41:54.115Z,28.92
2023-11-08T05:44:21.502Z,29.50
2023-11-08T05:46:50.615Z,31.33
2023-11-08T05:49:18.036Z,27.95
2023-11-08T05:51:45.103Z,31.65
2023-11-08T05:54:12.294Z,35.03
2023-11-08T05:56:39.348Z,35.85
2023-11-08T05:59:07.588Z,43.35
2023-11-08T06:01:36.046Z,36.35
2023-11-08T06:04:05.217Z,37.55
2023-11-08T06:06:32.314Z,34.38
2023-11-08T06:08:59.455Z,42.00
2023-11-08T06:11:28.160Z,43.58
2023-11-08T06:13:55.347Z,39.83
2023-11-08T06:16:22.395Z,39.30
2023-11-08T06:18:49.776Z,43.85
2023-11-08T06:21:17.172Z,39.75
2023-11-08T06:23:47.251Z,35.75
2023-11-08T06:26:19.302Z,39.70
2023-11-08T06:28:47.375Z,37.88
2023-11-08T06:31:14.993Z,36.25
2023-11-08T06:33:42.323Z,44.67
2023-11-08T06:36:12.473Z,42.03
2023-11-08T06:38:40.904Z,45.00
2023-11-08T06:41:07.975Z,42.95
2023-11-08T06:43:34.976Z,40.33
2023-11-08T06:46:02.421Z,41.08
2023-11-08T06:48:29.509Z,41.63
2023-11-08T06:50:56.600Z,41.05
2023-11-08T06:55:51.380Z,52.45
2023-11-08T06:58:18.510Z,44.20
2023-11-08T07:00:45.584Z,42.42
2023-11-08T07:03:12.782Z,39.60
2023-11-08T07:05:40.044Z,39.25
2023-11-08T07:08:09.461Z,44.95
2023-11-08T07:10:36.921Z,47.67
2023-11-08T07:13:03.995Z,43.40
2023-11-08T07:15:31.706Z,42.97
2023-11-08T07:17:58.822Z,50.38
2023-11-08T07:20:26.234Z,63.83
2023-11-08T07:22:53.228Z,42.75
2023-11-08T07:25:21.683Z,44.17
2023-11-08T07:27:48.839Z,39.95
2023-11-08T07:30:18.076Z,49.45
2023-11-08T07:32:47.553Z,47.33
2023-11-08T07:35:15.099Z,47.33
2023-11-08T07:37:42.276Z,43.53
2023-11-08T07:40:13.768Z,42.85
2023-11-08T07:42:42.299Z,41.08
2023-11-08T07:45:10.601Z,37.92
2023-11-08T07:47:37.783Z,38.58
2023-11-08T07:50:07.516Z,40.22
2023-11-08T07:52:34.851Z,32.70
2023-11-08T07:55:02.299Z,28.73
2023-11-08T07:57:29.552Z,33.65
2023-11-08T07:59:56.530Z,25.13
2023-11-08T08:02:23.662Z,25.45
2023-11-08T08:04:50.862Z,23.23
2023-11-08T08:07:18.009Z,22.35
2023-11-08T08:09:46.200Z,22.20
2023-11-08T08:12:13.508Z,21.23
2023-11-08T08:14:40.626Z,20.88
2023-11-08T08:17:09.757Z,19.63
2023-11-08T08:19:37.532Z,18.90
2023-11-08T08:22:05.480Z,21.35
2023-11-08T08:24:32.736Z,19.23
2023-11-08T08:27:00.830Z,18.88
2023-11-08T08:29:29.526Z,18.88
2023-11-08T08:31:56.651Z,19.85
2023-11-08T08:34:29.053Z,19.27
2023-11-08T08:36:59.137Z,17.77
2023-11-08T08:39:29.826Z,17.67
2023-11-08T08:41:57.998Z,18.65
2023-11-08T08:44:25.652Z,17.58
2023-11-08T08:46:53.228Z,17.30
2023-11-08T08:49:22.144Z,16.83
2023-11-08T08:51:51.356Z,18.40
2023-11-08T08:54:22.787Z,17.10
2023-11-08T08:56:50.293Z,18.20
2023-11-08T08:59:17.651Z,17.08
2023-11-08T09:01:44.938Z,17.73
2023-11-08T09:04:12.247Z,17.30
2023-11-08T09:06:40.264Z,17.20
2023-11-08T09:09:13.385Z,16.88
2023-11-08T09:11:44.097Z,17.17
2023-11-08T09:14:11.171Z,17.50
2023-11-08T09:16:40.037Z,17.27
2023-11-08T09:19:09.657Z,16.45
2023-11-08T09:21:37.756Z,16.40
2023-11-08T09:24:07.743Z,16.55
2023-11-08T09:26:36.016Z,16.15
2023-11-08T09:29:03.019Z,16.52
2023-11-08T09:31:31.678Z,15.73
2023-11-08T09:33:59.021Z,15.90
2023-11-08T09:36:27.119Z,16.13
2023-11-08T09:38:55.046Z,15.80
2023-11-08T09:41:23.273Z,15.98
2023-11-08T09:43:51.019Z,16.50
2023-11-08T09:46:18.473Z,16.92
2023-11-08T09:48:47.335Z,16.92
2023-11-08T09:51:14.734Z,16.05
2023-11-08T09:53:45.554Z,16.35
2023-11-08T09:56:13.162Z,15.90
2023-11-08T09:58:45.141Z,16.10
2023-11-08T10:01:18.861Z,16.15
2023-11-08T10:03:47.274Z,15.93
2023-11-08T10:06:16.303Z,16.17
2023-11-08T10:08:43.572Z,16.23
2023-11-08T10:11:16.969Z,16.30
2023-11-08T10:13:50.080Z,15.93
2023-11-08T10:16:18.668Z,15.77
2023-11-08T10:19:36.220Z,15.98
2023-11-08T10:21:52.527Z,16.13
2023-11-08T10:24:19.737Z,16.17
2023-11-08T10:26:47.951Z,17.00
2023-11-08T10:29:15.093Z,16.67
2023-11-08T10:31:43.330Z,19.23
2023-11-08T10:34:16.121Z,17.10
2023-11-08T10:36:44.369Z,17.75
2023-11-08T10:39:21.017Z,17.10
2023-11-08T10:41:51.206Z,16.38
2023-11-08T10:44:25.941Z,16.42
2023-11-08T10:46:59.723Z,16.27
2023-11-08T10:49:27.611Z,16.10
2023-11-08T10:51:58.993Z,15.93
2023-11-08T10:54:26.399Z,15.90
2023-11-08T10:56:56.410Z,16.08
2023-11-08T10:59:24.904Z,16.60
2023-11-08T11:01:52.013Z,17.42
2023-11-08T11:04:20.997Z,17.08
2023-11-08T11:06:50.170Z,16.73
2023-11-08T11:09:18.525Z,17.15
2023-11-08T11:11:52.077Z,17.35
2023-11-08T11:14:43.046Z,17.33
2023-11-08T11:17:33.337Z,16.40
2023-11-08T11:20:06.946Z,17.33
2023-11-08T11:22:34.869Z,15.38
2023-11-08T11:25:04.382Z,15.45
2023-11-08T11:27:36.784Z,15.35
2023-11-08T11:30:16.377Z,15.85
2023-11-08T11:32:49.186Z,16.75
2023-11-08T11:35:20.045Z,16.08
2023-11-08T11:38:08.605Z,15.80
2023-11-08T11:40:36.855Z,15.95
2023-11-08T11:43:23.987Z,15.82
2023-11-08T11:45:54.353Z,16.08
2023-11-08T11:48:22.998Z,16.00
2023-11-08T11:50:51.163Z,15.65
2023-11-08T11:53:18.687Z,16.40
2023-11-08T11:55:45.769Z,16.05
2023-11-08T11:58:12.891Z,15.68
2023-11-08T12:00:40.015Z,17.40
2023-11-08T12:03:07.133Z,15.60
2023-11-08T12:05:34.464Z,15.90
2023-11-08T12:08:01.550Z,16.30
2023-11-08T12:10:30.709Z,15.70
2023-11-08T12:12:59.324Z,20.70
2023-11-08T12:15:27.110Z,18.23
2023-11-08T12:17:55.317Z,17.63
2023-11-08T12:20:25.708Z,16.48
2023-11-08T12:22:55.254Z,17.60
2023-11-08T12:25:23.418Z,16.30
2023-11-08T12:27:58.027Z,17.60
2023-11-08T12:30:27.172Z,17.90
2023-11-08T12:32:59.846Z,16.27
2023-11-08T12:35:27.325Z,17.70
2023-11-08T12:38:01.264Z,16.23
2023-11-08T12:40:29.046Z,16.55
2023-11-08T12:43:55.785Z,16.10
2023-11-08T12:46:35.126Z,16.10
2023-11-08T12:48:31.816Z,15.77
2023-11-08T12:51:07.162Z,15.20
2023-11-08T12:53:34.218Z,15.57
2023-11-08T12:56:07.266Z,15.95
2023-11-08T12:58:35.148Z,15.20
2023-11-08T13:01:07.849Z,15.48
2023-11-08T13:03:44.143Z,15.40
2023-11-08T13:06:11.810Z,15.55
2023-11-08T13:08:40.778Z,15.05
2023-11-08T13:11:07.903Z,15.10
2023-11-08T13:13:36.337Z,15.18
2023-11-08T13:16:04.884Z,15.40
2023-11-08T13:18:31.985Z,15.20
2023-11-08T13:20:59.074Z,15.40
2023-11-08T13:24:00.615Z,15.32
2023-11-08T13:26:15.476Z,15.65
2023-11-08T13:28:44.973Z,15.45
2023-11-08T13:31:16.542Z,15.57
2023-11-08T13:33:44.243Z,15.45
2023-11-08T13:36:12.203Z,15.80
2023-11-08T13:38:39.631Z,16.23
2023-11-08T13:41:07.202Z,15.60
2023-11-08T13:43:35.684Z,16.17
2023-11-08T13:46:03.259Z,16.17
2023-11-08T13:48:30.567Z,15.68
2023-11-08T13:51:01.128Z,16.30
2023-11-08T13:53:28.484Z,16.63
2023-11-08T13:55:55.667Z,16.05
2023-11-08T13:58:29.404Z,15.98
2023-11-08T14:01:08.059Z,15.95
2023-11-08T14:03:36.985Z,18.75
2023-11-08T14:06:05.104Z,16.00
2023-11-08T14:08:32.535Z,15.90
2023-11-08T14:10:59.664Z,16.17
2023-11-08T14:13:27.155Z,15.93
2023-11-08T14:15:54.563Z,15.60
2023-11-08T14:18:21.682Z,15.75
2023-11-08T14:20:49.670Z,16.73
2023-11-08T14:23:17.338Z,16.40
2023-11-08T14:25:44.470Z,16.02
2023-11-08T14:28:11.663Z,16.73
2023-11-08T14:30:38.833Z,17.08
2023-11-08T14:33:06.209Z,17.30
2023-11-08T14:35:35.526Z,17.10
2023-11-08T14:38:02.776Z,16.77
2023-11-08T14:40:30.077Z,16.73
2023-11-08T14:42:57.220Z,18.15
2023-11-08T14:45:24.459Z,18.38
2023-11-08T14:47:52.310Z,16.85
2023-11-08T14:50:22.111Z,17.67
2023-11-08T14:52:51.360Z,17.20
2023-11-08T14:55:19.036Z,17.33
2023-11-08T14:57:46.568Z,17.88
2023-11-08T15:00:14.092Z,16.63
2023-11-08T15:02:41.330Z,17.73
2023-11-08T15:05:09.034Z,17.50
2023-11-08T15:09:42.609Z,17.75
2023-11-08T15:10:23.510Z,19.02
2023-11-08T15:12:50.806Z,22.33
2023-11-08T15:15:18.631Z,17.58
2023-11-08T15:17:46.983Z,18.80
2023-11-08T15:20:14.134Z,19.55
2023-11-08T15:22:41.602Z,19.25
2023-11-08T15:25:10.445Z,17.00
2023-11-08T15:27:38.038Z,17.23
2023-11-08T15:30:09.846Z,17.20
2023-11-08T15:32:40.301Z,16.60
2023-11-08T15:35:08.463Z,18.02
2023-11-08T15:37:35.518Z,16.95
2023-11-08T15:40:05.252Z,17.08
2023-11-08T15:42:33.442Z,18.30
2023-11-08T15:45:00.652Z,17.67
2023-11-08T15:47:27.947Z,18.00
2023-11-08T15:49:55.672Z,26.92
2023-11-08T15:52:22.923Z,19.35
2023-11-08T15:54:50.003Z,18.40
2023-11-08T15:57:17.040Z,18.35
2023-11-08T15:59:44.738Z,38.15
2023-11-08T16:02:11.865Z,34.65
2023-11-08T16:04:40.429Z,26.08
2023-11-08T16:07:09.026Z,22.25
2023-11-08T16:09:37.426Z,23.23
2023-11-08T16:12:05.030Z,18.90
2023-11-08T16:14:33.532Z,18.77
2023-11-08T16:17:05.185Z,19.10
2023-11-08T16:19:32.374Z,18.85
2023-11-08T16:21:59.610Z,18.33
2023-11-08T16:24:26.663Z,18.13
2023-11-08T16:26:54.760Z,17.60
2023-11-08T16:29:50.265Z,18.48
2023-11-08T16:32:34.355Z,19.20
2023-11-08T16:34:58.107Z,20.80
2023-11-08T16:37:26.571Z,22.52
2023-11-08T16:39:53.762Z,23.65
2023-11-08T16:42:20.993Z,23.25
2023-11-08T16:44:48.086Z,28.75
2023-11-08T16:47:15.528Z,31.63
2023-11-08T16:49:43.666Z,27.83
2023-11-08T16:52:10.711Z,30.10
2023-11-08T16:54:37.743Z,30.00
2023-11-08T16:57:04.976Z,23.25
2023-11-08T16:59:32.111Z,20.55
2023-11-08T17:01:59.115Z,21.67
2023-11-08T17:04:26.294Z,22.70
2023-11-08T17:06:53.557Z,25.00
2023-11-08T17:09:20.953Z,28.58
2023-11-08T17:11:52.156Z,41.40
2023-11-08T17:14:22.959Z,36.60
2023-11-08T17:16:49.938Z,25.77
2023-11-08T17:19:17.011Z,22.42
2023-11-08T17:21:44.413Z,22.85
2023-11-08T17:24:11.462Z,28.42
2023-11-08T17:26:38.840Z,26.63
2023-11-08T17:29:06.272Z,24.35
2023-11-08T17:31:33.947Z,22.70
2023-11-08T17:34:01.074Z,22.27
2023-11-08T17:36:28.142Z,28.25
2023-11-08T17:38:55.121Z,23.27
2023-11-08T17:41:22.205Z,24.92
2023-11-08T17:43:49.479Z,25.95
2023-11-08T17:46:18.029Z,22.63
2023-11-08T17:48:45.324Z,23.15
2023-11-08T17:51:12.406Z,23.20
2023-11-08T17:53:39.436Z,23.45
2023-11-08T17:56:07.005Z,24.00
2023-11-08T17:58:34.625Z,23.10
2023-11-08T18:01:01.727Z,22.25
2023-11-08T18:03:28.835Z,23.73
2023-11-08T18:05:58.759Z,25.15
2023-11-08T18:08:25.910Z,24.08
2023-11-08T18:10:53.061Z,25.52
2023-11-08T18:13:20.347Z,23.45
2023-11-08T18:15:50.498Z,23.98
2023-11-08T18:18:19.867Z,23.75
2023-11-08T18:20:47.174Z,25.35
2023-11-08T18:23:14.249Z,23.55
2023-11-08T18:25:42.113Z,23.27
2023-11-08T18:28:10.380Z,23.15
2023-11-08T18:30:37.575Z,23.60
2023-11-08T18:33:04.664Z,24.55
2023-11-08T18:35:31.870Z,27.30
2023-11-08T18:37:58.976Z,23.65
2023-11-08T18:40:27.516Z,22.83
2023-11-08T18:42:54.774Z,23.67
2023-11-08T18:45:21.866Z,23.88
2023-11-08T18:47:48.972Z,23.67
2023-11-08T18:50:16.821Z,23.77
2023-11-08T18:52:44.670Z,23.65
2023-11-08T18:55:11.904Z,25.33
2023-11-08T18:57:39.068Z,25.10
2023-11-08T19:00:06.973Z,23.65
2023-11-08T19:02:34.161Z,24.15
2023-11-08T19:05:02.595Z,25.92
2023-11-08T19:07:29.709Z,25.70
2023-11-08T19:09:56.730Z,25.88
2023-11-08T19:12:25.414Z,26.10
2023-11-08T19:14:52.492Z,27.02
2023-11-08T19:17:19.879Z,26.98
2023-11-08T19:19:47.520Z,32.22
2023-11-08T19:22:14.638Z,31.02
2023-11-08T19:24:41.712Z,29.60
2023-11-08T19:27:08.714Z,27.60
2023-11-08T19:29:35.815Z,28.27
2023-11-08T19:32:02.911Z,28.92
2023-11-08T19:34:30.107Z,30.20
2023-11-08T19:36:57.229Z,27.55
2023-11-08T19:39:25.495Z,28.75
2023-11-08T19:41:52.525Z,24.48
2023-11-08T19:44:19.594Z,24.30
2023-11-08T19:46:46.919Z,26.88
2023-11-08T19:49:14.062Z,25.83
2023-11-08T19:51:42.347Z,24.05
2023-11-08T19:54:09.386Z,26.88
2023-11-08T19:56:36.491Z,22.98
2023-11-08T19:59:03.546Z,25.33
2023-11-08T20:01:30.799Z,28.77
2023-11-08T20:03:57.948Z,23.40
2023-11-08T20:06:26.062Z,23.02
2023-11-08T20:08:53.133Z,24.10
2023-11-08T20:11:20.151Z,24.67
2023-11-08T20:13:47.232Z,21.83
2023-11-08T20:16:14.436Z,25.50
2023-11-08T20:18:41.946Z,22.48
2023-11-08T20:21:11.200Z,22.33
2023-11-08T20:23:38.821Z,22.75
2023-11-08T20:26:07.429Z,23.55
2023-11-08T20:28:37.467Z,25.70
2023-11-08T20:31:06.018Z,22.27
2023-11-08T20:33:33.634Z,22.00
2023-11-08T20:36:01.312Z,22.48
2023-11-08T20:38:29.514Z,22.50
2023-11-08T20:40:56.926Z,22.27
2023-11-08T20:43:24.374Z,22.17
2023-11-08T20:45:51.566Z,22.50
2023-11-08T20:48:18.615Z,23.00
2023-11-08T20:50:47.066Z,22.60
2023-11-08T20:53:14.353Z,23.33
2023-11-08T20:55:41.638Z,27.38
2023-11-08T20:58:08.698Z,26.83
2023-11-08T21:00:35.773Z,32.05
2023-11-08T21:03:04.431Z,32.97
2023-11-08T21:05:31.657Z,29.90
2023-11-08T21:07:58.711Z,24.90
2023-11-08T21:10:25.828Z,25.80
2023-11-08T21:12:53.015Z,23.92
2023-11-08T21:15:20.141Z,23.75
2023-11-08T21:17:47.444Z,28.88
2023-11-08T21:20:15.735Z,24.13
2023-11-08T21:22:43.180Z,24.75
2023-11-08T21:25:11.051Z,25.50
2023-11-08T21:27:38.907Z,23.52
2023-11-08T21:30:09.544Z,23.92
2023-11-08T21:32:37.891Z,23.48
2023-11-08T21:35:05.560Z,23.50
2023-11-08T21:37:33.661Z,23.65
2023-11-08T21:40:00.754Z,25.35
2023-11-08T21:42:27.906Z,25.45
2023-11-08T21:44:54.896Z,26.60
2023-11-08T21:47:21.869Z,24.50
2023-11-08T21:49:50.229Z,27.40
2023-11-08T21:52:17.755Z,23.98
2023-11-08T21:54:46.472Z,24.80
2023-11-08T21:57:14.256Z,23.52
2023-11-08T21:59:41.722Z,24.75
2023-11-08T22:02:09.037Z,23.35
2023-11-08T22:04:36.793Z,25.08
2023-11-08T22:07:04.807Z,23.58
2023-11-08T22:09:32.210Z,24.52
2023-11-08T22:11:59.215Z,23.95
2023-11-08T22:14:27.666Z,25.33
2023-11-08T22:16:54.750Z,25.75
2023-11-08T22:19:21.904Z,26.13
2023-11-08T22:21:48.961Z,24.48
2023-11-08T22:24:18.406Z,26.75
2023-11-08T22:26:45.648Z,25.50
2023-11-08T22:29:12.649Z,24.30
2023-11-08T22:31:39.945Z,26.08
2023-11-08T22:34:07.679Z,26.92
2023-11-08T22:36:34.725Z,24.98
2023-11-08T22:39:04.516Z,24.38
2023-11-08T22:41:31.576Z,25.27
2023-11-08T22:43:58.586Z,27.50
2023-11-08T22:46:31.705Z,25.90
2023-11-08T22:48:59.887Z,28.70
2023-11-08T22:51:28.377Z,25.23
2023-11-08T22:53:55.857Z,25.92
2023-11-08T22:56:22.965Z,25.98
2023-11-08T22:58:50.012Z,25.23
2023-11-08T23:01:37.156Z,25.17
2023-11-08T23:04:05.092Z,26.40
2023-11-08T23:06:32.845Z,26.58
2023-11-08T23:09:03.486Z,27.63
2023-11-08T23:11:32.493Z,29.75
2023-11-08T23:13:59.710Z,31.33
2023-11-08T23:16:27.414Z,33.75
2023-11-08T23:18:55.484Z,32.75
2023-11-08T23:21:23.397Z,30.58
2023-11-08T23:23:52.513Z,33.83
2023-11-08T23:26:20.591Z,30.15
2023-11-08T23:28:47.788Z,30.77
2023-11-08T23:31:15.329Z,28.90
2023-11-08T23:33:42.470Z,28.48
2023-11-08T23:36:13.684Z,29.83
2023-11-08T23:38:44.494Z,31.67
2023-11-08T23:41:11.750Z,33.15
2023-11-08T23:43:38.766Z,32.35
2023-11-08T23:46:06.950Z,32.40
2023-11-08T23:48:34.087Z,34.65
2023-11-08T23:51:01.116Z,34.42
2023-11-08T23:53:28.349Z,33.63
2023-11-08T23:55:55.361Z,32.03
2023-11-08T23:58:22.648Z,30.90
